Klik op de webcam foto voor een grotere versieKlik op de webcam foto voor een grotere versie
Of klik hier voor
de webcam video


Weerstation
Wilsele-Leuven:Website of another weatherstation



Nabijgelegen vliegvelden - METAR rapporten

   
EBBR - Vaartkom-Leuven
Gewijzigd: 20-11-2019 20:20
Helder    Wind: OZO 7 km/h
Helder
Wind: Wind: OZO 7 km/h
Temperatuur: 1°C
Voelt als: -1°C
Dauwpunt: -1°C
Vochtigheid: 87%
Barometer: 1013 hPa
Zicht: meer dan 10 km
Bewolking: Helder
EBBR 201920Z 11004KT CAVOK 01/M01 Q1013 NOSIG
EBAW - Antwerp
Gewijzigd: 20-11-2019 20:20
Gedeeltelijk bewolkt    Wind: Oosten 9 km/h
Gedeeltelijk bewolkt
Wind: Wind: Oosten 9 km/h
Temperatuur: 1°C
Voelt als: -2°C
Dauwpunt: 0°C
Vochtigheid: 93%
Barometer: 1013 hPa
Bewolking: Gedeeltelijk bewolkt
Zicht: 8 km
Bewolking: Gedeeltelijk bewolkt 762 m
EBAW 201920Z 09005KT 8000 SCT025 01/M00 Q1013 NOSIG
EBLG - Liège
Gewijzigd: 20-11-2019 20:20
Helder    Wind: OZO 9 km/h
Helder
Wind: Wind: OZO 9 km/h
Temperatuur: 1°C
Voelt als: -2°C
Dauwpunt: -1°C
Vochtigheid: 87%
Barometer: 1013 hPa
Zicht: meer dan 10 km
Bewolking: Helder
EBLG 201920Z 11005KT CAVOK 01/M01 Q1013 NOSIG
EBCV - Mons/Bergen
Gewijzigd: 20-11-2019 20:25
Helder    Wind: Oosten 13 km/h
Helder
Wind: Wind: Oosten 13 km/h
Temperatuur: 1°C
Voelt als: -3°C
Dauwpunt: -1°C
Vochtigheid: 87%
Barometer: 1012 hPa
Bewolking: Helder
Zicht: meer dan 10 km
Bewolking: Helder
EBCV 201925Z AUTO 10007KT 9999 NCD 01/M01 Q1012 BLU
EHBK - Maastricht
Gewijzigd: 20-11-2019 20:25
Helder    Wind: Oosten 7 km/h
Helder
Wind: Wind: Oosten 7 km/h
Temperatuur: 1°C
Voelt als: -1°C
Dauwpunt: -1°C
Vochtigheid: 87%
Barometer: 1013 hPa
Bewolking: Helder
Zicht: meer dan 10 km
Bewolking: Helder
EHBK 201925Z AUTO 09004KT 9999 NCD 01/M01 Q1013 NOSIG
ELLX - Luxemburg
Gewijzigd: 20-11-2019 20:20
Helder    Wind: ONO 13 km/h
Helder
Wind: Wind: ONO 13 km/h
Temperatuur: 0°C
Voelt als: -4°C
Dauwpunt: -2°C
Vochtigheid: 87%
Barometer: 1012 hPa
Zicht: meer dan 10 km
Bewolking: Helder
ELLX 201920Z 06007KT CAVOK M00/M02 Q1012 NOSIG
EBOS - Oostende
Gewijzigd: 20-11-2019 20:20
Helder    Wind: Oosten 15 km/h
Helder
Wind: Wind: Oosten 15 km/h
Temperatuur: 2°C
Voelt als: -2°C
Dauwpunt: -1°C
Vochtigheid: 81%
Barometer: 1012 hPa
Zicht: meer dan 10 km
Bewolking: Helder
EBOS 201920Z 10008KT CAVOK 02/M01 Q1012 NOSIG
  

Script ontwikkeld door  Saratoga-weather.org Aangepast voor de template door  Weerstation Leuven

U vindt ons ook hier:

UK Metoffice

WeatherCloud

European Weather Network

Weather Underground

Bernelux Weather Network

AWEKAS

WeatherlinkIP

Citizen Weather Observer Program (CWOP)

HAMweather, WeatherForYou, PWS Weather

Apparatuur in gebruik:

Weer-station
Davis VUE

Weer-programma
Meteobridge

Weer-computer
Nano-SD

Webleverancier
Robohost

Davis VUE

Meteobridge

Nano-SD

Robohost